Terminal Aerodrome Forecast
Issued by NWS Topeka, KS

Home | Current Version | Previous Version | Text Only | Print | Product List | Glossary Off
Versions: 1 2 3 4 5 6 7 8 9 10 11 12 13 14 15 16 17 18 19 20 21 22 23 24 25

000
FTUS43 KTOP 241851 AAA
TAFTOP
TAF AMD
KTOP 241851Z 2419/2518 22010KT P6SM VCSH FEW040 BKN150
     FM242200 19007KT P6SM VCTS BKN040CB
     FM250100 06005KT 6SM -TSRA SCT015 BKN050CB
      TEMPO 2502/2505 4SM TSRA BKN015CB
     FM250600 27003KT P6SM VCTS SCT025 BKN035CB
     FM251100 33004KT P6SM BKN015 OVC025
     FM251600 01006KT P6SM BKN035=

USA.gov is the U.S. government's official web portal to all federal, state and local government web resources and services.